Time;durP1;ratioP1;P1;durP2;ratioP2;P2;SDS_P1;SDS_P2;PMS_P1;PMS_P2;Temp;Humidity;BMP_temperature;BMP_pressure;BME280_temperature;BME280_humidity;BME280_pressure;Samples;Min_cycle;Max_cycle;Signal;HPM_P1;HPM_P2
2023/01/25 00:00:30;;;;;;;7.47;4.30;;;;;;;2.59;79.49;98311.69;5067393;28;20572;-71
2023/01/25 00:02:57;;;;;;;8.37;4.67;;;;;;;2.59;79.66;98324.47;5067890;28;20342;-71
2023/01/25 00:05:24;;;;;;;9.23;4.90;;;;;;;2.62;79.73;98298.06;5098737;28;20286;-71
2023/01/25 00:07:51;;;;;;;6.10;4.50;;;;;;;2.74;79.69;98319.41;5067616;28;20193;-72
2023/01/25 00:10:18;;;;;;;7.03;4.30;;;;;;;2.62;79.43;98306.56;5066964;28;20650;-73
2023/01/25 00:12:45;;;;;;;8.37;4.97;;;;;;;2.78;78.90;98315.19;5067178;28;20594;-70
2023/01/25 00:15:12;;;;;;;8.83;5.10;;;;;;;2.48;79.74;98300.50;5067025;28;20306;-71
2023/01/25 00:17:39;;;;;;;7.83;4.73;;;;;;;2.53;79.37;98310.78;5065784;28;20295;-71
2023/01/25 00:20:09;;;;;;;9.80;4.93;;;;;;;2.41;79.55;98303.91;5067222;28;20195;-71
2023/01/25 00:22:36;;;;;;;7.27;4.20;;;;;;;2.37;79.08;98312.38;5066197;28;20220;-70
2023/01/25 00:25:04;;;;;;;8.20;4.60;;;;;;;2.47;79.55;98312.44;5067384;28;20224;-69
2023/01/25 00:27:31;;;;;;;8.50;4.70;;;;;;;2.34;80.28;98310.66;5066330;28;20243;-69
2023/01/25 00:29:58;;;;;;;9.43;4.50;;;;;;;2.41;79.86;98307.28;5066816;28;20246;-69
2023/01/25 00:32:39;;;;;;;10.17;4.23;;;;;;;2.33;80.14;98313.19;5066763;28;20319;-70
2023/01/25 00:35:11;;;;;;;8.63;4.90;;;;;;;2.29;80.76;98319.13;5065280;28;20212;-70
2023/01/25 00:37:42;;;;;;;9.30;4.33;;;;;;;2.38;80.02;98314.09;5066056;28;20213;-70
2023/01/25 00:40:11;;;;;;;7.40;4.50;;;;;;;2.17;80.12;98306.25;5078935;28;20184;-70
2023/01/25 00:42:39;;;;;;;7.43;4.47;;;;;;;2.47;79.05;98312.44;5087588;28;20191;-71
2023/01/25 00:45:07;;;;;;;6.03;4.10;;;;;;;2.32;79.20;98314.06;5085227;28;20276;-71
2023/01/25 00:47:34;;;;;;;7.37;4.40;;;;;;;2.33;78.91;98311.50;5087081;28;20189;-72
2023/01/25 00:50:05;;;;;;;6.77;4.13;;;;;;;2.23;79.08;98293.53;5087056;28;20196;-72
2023/01/25 00:52:32;;;;;;;7.83;4.53;;;;;;;2.29;78.16;98302.09;5086430;28;20353;-71
2023/01/25 00:54:59;;;;;;;7.37;3.90;;;;;;;2.26;78.80;98301.22;5087350;28;20250;-71
2023/01/25 00:57:26;;;;;;;6.27;4.13;;;;;;;2.27;79.20;98302.94;5067872;28;20196;-72
2023/01/25 00:59:54;;;;;;;7.37;5.03;;;;;;;2.43;78.30;98297.09;5085788;28;20192;-71
2023/01/25 01:02:21;;;;;;;7.53;4.63;;;;;;;2.48;78.00;98292.84;5086483;28;20277;-72
2023/01/25 01:04:51;;;;;;;6.30;4.33;;;;;;;2.54;77.90;98290.31;5085697;28;20183;-72
2023/01/25 01:07:18;;;;;;;6.83;4.00;;;;;;;2.39;78.02;98292.81;5087195;28;20194;-72
2023/01/25 01:09:45;;;;;;;5.60;4.13;;;;;;;2.48;77.43;98290.28;5085044;28;20550;-71
2023/01/25 01:12:12;;;;;;;8.03;4.23;;;;;;;2.43;78.08;98284.31;5085623;28;20246;-72
2023/01/25 01:14:41;;;;;;;7.00;4.17;;;;;;;2.44;77.54;98273.22;5084560;28;20639;-71
2023/01/25 01:17:08;;;;;;;6.07;4.03;;;;;;;2.49;77.46;98282.63;5085849;28;20189;-71
2023/01/25 01:19:35;;;;;;;6.10;3.70;;;;;;;2.54;76.92;98285.22;5084816;28;20184;-70
2023/01/25 01:22:02;;;;;;;5.87;3.63;;;;;;;2.51;76.61;98280.09;5085295;28;20676;-71
2023/01/25 01:24:29;;;;;;;7.13;4.20;;;;;;;2.60;76.54;98285.25;5085292;28;20189;-71
2023/01/25 01:26:56;;;;;;;5.13;3.60;;;;;;;2.53;75.83;98288.63;5084614;28;20208;-71
2023/01/25 01:29:23;;;;;;;8.17;4.03;;;;;;;2.54;76.17;98284.34;5089004;28;20573;-71
2023/01/25 01:31:52;;;;;;;6.43;3.90;;;;;;;2.45;76.19;98287.72;5089658;28;20220;-71
2023/01/25 01:34:22;;;;;;;7.93;3.60;;;;;;;2.39;76.36;98260.41;5089670;28;20181;-71
2023/01/25 01:36:50;;;;;;;8.60;3.97;;;;;;;2.46;77.21;98285.19;5088528;28;20177;-71
2023/01/25 01:39:17;;;;;;;5.57;3.67;;;;;;;2.38;76.83;98279.16;5089110;28;20269;-70
2023/01/25 01:41:44;;;;;;;7.07;4.00;;;;;;;2.56;75.87;98288.63;5088945;28;20219;-71
2023/01/25 01:44:19;;;;;;;5.10;3.67;;;;;;;2.64;75.58;98286.97;5088638;28;20185;-71
2023/01/25 01:46:55;;;;;;;4.37;3.20;;;;;;;2.49;74.71;98274.94;5089325;28;20259;-70
2023/01/25 01:49:28;;;;;;;5.83;3.90;;;;;;;2.48;75.29;98286.03;5088121;28;20192;-71
2023/01/25 01:52:16;;;;;;;6.40;4.10;;;;;;;2.27;76.17;98272.25;5090516;28;20705;-71
2023/01/25 01:55:10;;;;;;;6.37;3.53;;;;;;;2.37;75.69;98281.72;5088695;28;20188;-71
2023/01/25 01:57:46;;;;;;;5.90;3.47;;;;;;;2.34;76.03;98274.03;5089631;28;20200;-71
2023/01/25 02:00:19;;;;;;;7.07;3.60;;;;;;;2.25;76.04;98277.38;5089072;28;20214;-71
2023/01/25 02:02:49;;;;;;;5.47;3.50;;;;;;;2.23;75.44;98262.88;5087917;28;20184;-71
2023/01/25 02:05:30;;;;;;;7.40;3.80;;;;;;;2.20;75.52;98271.38;5090024;28;20667;-70
2023/01/25 02:07:58;;;;;;;5.80;3.73;;;;;;;2.31;76.17;98276.53;5090015;28;20551;-71
2023/01/25 02:10:27;;;;;;;7.03;3.93;;;;;;;2.26;76.29;98273.13;5071365;28;20184;-70
2023/01/25 02:12:57;;;;;;;6.33;3.80;;;;;;;2.33;75.38;98285.06;5088837;28;20289;-70
2023/01/25 02:15:32;;;;;;;6.77;3.83;;;;;;;2.32;75.33;98279.13;5087673;28;20188;-70
2023/01/25 02:18:01;;;;;;;6.83;4.00;;;;;;;2.28;75.49;98279.09;5088822;28;20754;-70
2023/01/25 02:20:39;;;;;;;5.37;3.60;;;;;;;2.02;76.61;98285.72;5088110;28;20690;-70
2023/01/25 02:23:06;;;;;;;6.57;3.30;;;;;;;2.04;77.35;98279.78;5089389;28;20180;-71
2023/01/25 02:25:33;;;;;;;5.67;3.47;;;;;;;1.64;77.36;98276.06;5071622;28;20192;-71
2023/01/25 02:28:10;;;;;;;5.63;3.53;;;;;;;1.78;78.36;98280.41;5088579;28;20188;-70
2023/01/25 02:30:37;;;;;;;8.10;4.30;;;;;;;1.67;78.04;98281.16;5089657;28;20594;-71
2023/01/25 02:33:05;;;;;;;7.30;4.33;;;;;;;1.83;78.38;98276.22;5087587;28;20313;-71
2023/01/25 02:35:43;;;;;;;6.60;4.33;;;;;;;1.84;78.77;98277.91;5088313;28;20643;-71
2023/01/25 02:38:16;;;;;;;7.50;3.87;;;;;;;1.80;78.29;98266.81;5070904;28;20233;-71
2023/01/25 02:41:14;;;;;;;6.93;4.23;;;;;;;1.94;77.87;98269.50;5087755;28;20196;-70
2023/01/25 02:43:41;;;;;;;6.53;3.90;;;;;;;1.77;78.38;98268.50;5071389;28;20226;-71
2023/01/25 02:46:30;;;;;;;5.97;4.23;;;;;;;1.92;77.32;98278.81;5088483;28;20192;-71
2023/01/25 02:48:59;;;;;;;4.93;3.70;;;;;;;1.75;78.07;98257.41;5087543;28;20221;-71
2023/01/25 02:51:30;;;;;;;6.87;4.10;;;;;;;1.71;78.37;98271.00;5087835;28;20736;-71
2023/01/25 02:53:59;;;;;;;4.97;3.80;;;;;;;1.94;78.76;98262.66;5087113;28;20710;-71
2023/01/25 02:56:26;;;;;;;6.00;4.50;;;;;;;1.51;78.70;98260.59;5089250;28;20216;-70
2023/01/25 02:58:53;;;;;;;5.60;3.87;;;;;;;1.57;78.89;98264.06;5088233;28;20185;-70
2023/01/25 03:01:20;;;;;;;6.57;4.17;;;;;;;1.78;78.38;98258.28;5087650;28;21062;-71
2023/01/25 03:03:47;;;;;;;8.03;4.13;;;;;;;1.83;77.49;98266.00;5087044;28;20191;-70
2023/01/25 03:06:15;;;;;;;5.80;3.37;;;;;;;1.86;77.64;98256.66;5087321;28;20219;-70
2023/01/25 03:08:42;;;;;;;9.10;4.57;;;;;;;1.92;76.47;98266.91;5087420;28;20218;-71
2023/01/25 03:11:09;;;;;;;8.83;5.43;;;;;;;1.93;76.53;98263.53;5086626;28;20356;-71
2023/01/25 03:13:37;;;;;;;7.23;4.07;;;;;;;1.81;76.11;98262.56;5053975;28;20219;-71
2023/01/25 03:16:07;;;;;;;7.60;4.00;;;;;;;1.84;77.47;98262.56;5086607;28;20664;-70
2023/01/25 03:18:35;;;;;;;9.27;4.47;;;;;;;1.85;76.72;98247.28;5087357;28;20195;-70
2023/01/25 03:21:11;;;;;;;8.40;5.20;;;;;;;1.98;76.34;98263.56;5086645;28;20182;-71
2023/01/25 03:23:39;;;;;;;7.27;4.60;;;;;;;1.64;76.83;98264.97;5086696;28;20216;-70
2023/01/25 03:26:11;;;;;;;8.50;5.37;;;;;;;1.70;76.55;98259.94;5087183;28;20274;-69
2023/01/25 03:28:51;;;;;;;9.00;4.83;;;;;;;1.84;76.34;98263.44;5086173;28;21166;-70
2023/01/25 03:31:19;;;;;;;6.23;3.93;;;;;;;1.82;76.43;98259.16;5087460;28;20196;-71
2023/01/25 03:33:47;;;;;;;6.17;4.20;;;;;;;1.99;76.67;98262.72;5069550;28;20323;-71
2023/01/25 03:36:14;;;;;;;6.57;3.83;;;;;;;1.95;75.54;98258.41;5070505;28;20192;-71
2023/01/25 03:38:41;;;;;;;5.33;3.77;;;;;;;1.87;75.35;98260.06;5086816;28;20220;-71
2023/01/25 03:41:11;;;;;;;5.43;3.50;;;;;;;2.03;76.15;98270.41;5087791;28;20679;-70
2023/01/25 03:43:39;;;;;;;6.30;4.30;;;;;;;1.88;75.07;98269.41;5087254;28;20306;-70
2023/01/25 03:46:06;;;;;;;6.27;3.60;;;;;;;1.89;75.10;98266.03;5086196;28;20670;-71
2023/01/25 03:48:33;;;;;;;7.17;4.07;;;;;;;1.97;75.49;98269.50;5087211;28;20188;-70
2023/01/25 03:51:00;;;;;;;7.03;4.57;;;;;;;1.93;75.92;98275.44;5087193;28;20180;-70
2023/01/25 03:53:29;;;;;;;6.23;4.43;;;;;;;1.94;76.32;98284.81;5069798;28;20228;-71
2023/01/25 03:56:11;;;;;;;6.63;4.13;;;;;;;2.01;75.17;98274.66;5086563;28;20177;-72
2023/01/25 03:58:46;;;;;;;6.67;4.03;;;;;;;1.76;76.08;98275.28;5085877;28;20535;-71
2023/01/25 04:01:13;;;;;;;6.43;4.50;;;;;;;1.87;76.20;98272.84;5086860;28;20188;-70
2023/01/25 04:03:40;;;;;;;7.87;4.67;;;;;;;1.87;75.79;98262.63;5085697;28;20677;-71
2023/01/25 04:06:09;;;;;;;6.43;4.50;;;;;;;1.64;76.23;98270.94;5070453;28;20285;-70
2023/01/25 04:08:37;;;;;;;10.43;5.10;;;;;;;1.89;75.78;98276.25;5085870;28;20180;-71
2023/01/25 04:11:08;;;;;;;6.10;3.77;;;;;;;1.90;76.43;98283.91;5086391;28;20563;-70
2023/01/25 04:13:37;;;;;;;6.53;4.70;;;;;;;1.89;76.42;98268.59;5069474;28;20631;-71
2023/01/25 04:16:10;;;;;;;9.40;5.27;;;;;;;1.95;76.14;98286.50;5082457;28;20565;-70
2023/01/25 04:19:00;;;;;;;7.03;4.40;;;;;;;2.03;76.26;98282.31;5083695;28;20203;-70
2023/01/25 04:21:29;;;;;;;6.33;4.10;;;;;;;1.91;76.25;98285.66;5085568;28;20188;-71
2023/01/25 04:23:56;;;;;;;9.10;4.80;;;;;;;1.86;76.04;98286.44;5087512;28;20200;-70
2023/01/25 04:26:24;;;;;;;7.70;4.77;;;;;;;1.89;76.04;98274.56;5086144;28;20196;-70
2023/01/25 04:28:55;;;;;;;8.60;5.50;;;;;;;1.95;76.38;98274.59;5065124;28;20193;-70
2023/01/25 04:31:22;;;;;;;8.60;6.13;;;;;;;1.98;75.73;98276.34;5077411;28;20228;-70
2023/01/25 04:33:49;;;;;;;10.53;5.17;;;;;;;2.06;75.11;98284.91;5083485;28;20602;-71
2023/01/25 04:36:18;;;;;;;9.37;5.17;;;;;;;2.07;75.60;98286.59;5083744;28;20196;-70
2023/01/25 04:38:46;;;;;;;10.33;5.97;;;;;;;2.13;75.70;98287.50;5084742;28;20219;-71
2023/01/25 04:41:14;;;;;;;16.23;5.67;;;;;;;2.19;75.66;98296.91;5082731;28;20196;-69
2023/01/25 04:43:42;;;;;;;8.50;5.50;;;;;;;2.14;75.07;98293.47;5085382;28;20193;-70
2023/01/25 04:46:10;;;;;;;9.57;4.80;;;;;;;2.17;74.70;98285.81;5085100;28;20749;-70
2023/01/25 04:48:38;;;;;;;7.13;4.83;;;;;;;2.18;75.26;98290.09;5069338;28;20189;-69
2023/01/25 04:51:08;;;;;;;6.63;4.43;;;;;;;2.15;74.86;98280.72;5085042;28;20188;-69
2023/01/25 04:53:35;;;;;;;6.73;4.37;;;;;;;2.27;74.84;98292.69;5068892;28;20236;-69
2023/01/25 04:56:05;;;;;;;7.20;5.13;;;;;;;2.35;74.85;98283.38;5084816;28;20189;-70
2023/01/25 04:58:40;;;;;;;11.43;5.13;;;;;;;2.26;74.11;98283.34;5085491;28;20728;-69
2023/01/25 05:01:07;;;;;;;8.77;5.17;;;;;;;2.17;74.20;98288.38;5085270;28;20199;-70
2023/01/25 05:03:34;;;;;;;11.40;5.60;;;;;;;2.18;74.11;98285.00;5085799;28;20189;-70
2023/01/25 05:06:03;;;;;;;7.63;4.57;;;;;;;2.10;74.62;98290.03;5079702;28;20671;-69
2023/01/25 05:08:30;;;;;;;10.07;5.43;;;;;;;2.11;74.08;98285.78;5070206;28;20204;-69
2023/01/25 05:11:00;;;;;;;8.47;5.50;;;;;;;2.09;74.13;98284.91;5048678;28;20710;-69
2023/01/25 05:13:36;;;;;;;9.57;5.60;;;;;;;2.06;75.11;98269.59;5065903;28;20217;-70
2023/01/25 05:16:14;;;;;;;8.40;5.10;;;;;;;2.24;74.60;98272.25;5069442;28;20276;-71
2023/01/25 05:18:41;;;;;;;8.27;4.90;;;;;;;2.23;73.89;98267.97;5085071;28;20195;-71
2023/01/25 05:24:12;;;;;;;8.27;5.40;;;;;;;2.21;74.89;98274.78;5065599;28;20189;-71
2023/01/25 05:29:35;;;;;;;10.23;5.63;;;;;;;2.14;75.04;98278.16;5081219;28;20230;-70
2023/01/25 05:32:05;;;;;;;11.07;5.47;;;;;;;2.14;74.67;98286.66;5068439;28;20195;-70
2023/01/25 05:34:33;;;;;;;8.47;5.90;;;;;;;2.05;74.29;98280.63;5084223;28;20180;-71
2023/01/25 05:37:01;;;;;;;8.03;5.43;;;;;;;2.05;74.26;98271.28;5068565;28;20222;-70
2023/01/25 05:39:28;;;;;;;9.30;4.97;;;;;;;2.09;74.12;98278.13;5084209;28;20232;-70
2023/01/25 05:41:56;;;;;;;8.77;5.63;;;;;;;2.05;73.80;98284.03;5085258;28;20181;-71
2023/01/25 05:44:23;;;;;;;8.27;4.67;;;;;;;2.02;74.21;98284.00;5085160;28;20289;-70
2023/01/25 05:46:50;;;;;;;13.93;4.50;;;;;;;2.00;72.82;98279.75;5084750;28;20281;-69
2023/01/25 05:49:18;;;;;;;7.17;5.07;;;;;;;1.91;73.40;98275.44;5085284;28;20200;-70
2023/01/25 05:51:46;;;;;;;7.07;5.27;;;;;;;2.03;73.98;98283.19;5084029;28;20185;-70
2023/01/25 05:54:15;;;;;;;10.80;5.30;;;;;;;1.98;73.38;98292.50;5085449;28;20220;-71
2023/01/25 05:56:49;;;;;;;8.67;5.80;;;;;;;1.95;74.15;98289.94;5084174;28;20210;-69
2023/01/25 05:59:17;;;;;;;11.90;6.33;;;;;;;1.95;73.60;98277.16;5084932;28;20201;-69
2023/01/25 06:01:45;;;;;;;17.73;6.60;;;;;;;1.98;73.98;98284.00;5085052;28;20189;-70
2023/01/25 06:04:14;;;;;;;13.27;7.17;;;;;;;2.24;73.84;98295.25;5085585;28;20280;-71
2023/01/25 06:06:42;;;;;;;10.77;6.30;;;;;;;2.25;74.13;98304.63;5086490;28;20625;-70
2023/01/25 06:09:11;;;;;;;10.33;5.97;;;;;;;2.25;73.84;98299.50;5083920;28;20916;-71
2023/01/25 06:11:41;;;;;;;8.37;5.63;;;;;;;2.23;73.07;98296.94;5085155;28;20271;-70
2023/01/25 06:14:08;;;;;;;7.37;4.50;;;;;;;2.36;72.72;98310.66;5084218;28;20216;-71
2023/01/25 06:16:36;;;;;;;7.60;4.17;;;;;;;2.10;72.67;98286.63;5087196;28;20185;-70
2023/01/25 06:19:26;;;;;;;7.00;4.50;;;;;;;2.08;72.43;98307.03;5089702;28;20232;-70
2023/01/25 06:22:08;;;;;;;12.40;5.83;;;;;;;2.06;72.92;98307.91;5087158;28;20220;-70
2023/01/25 06:24:35;;;;;;;10.40;7.00;;;;;;;2.00;73.08;98315.53;5088490;28;20632;-71
2023/01/25 06:27:02;;;;;;;11.47;7.13;;;;;;;2.01;72.65;98312.97;5088539;28;20284;-71
2023/01/25 06:29:28;;;;;;;8.70;5.80;;;;;;;2.10;72.97;98312.19;5087855;28;20196;-70
2023/01/25 06:31:55;;;;;;;13.57;6.93;;;;;;;2.04;72.85;98312.97;5089550;28;20622;-69
2023/01/25 06:34:23;;;;;;;11.43;5.83;;;;;;;2.11;72.38;98313.88;5088944;28;20303;-70
2023/01/25 06:36:51;;;;;;;9.33;5.77;;;;;;;2.23;72.24;98319.94;5088689;28;20195;-71
2023/01/25 06:39:18;;;;;;;15.60;6.73;;;;;;;2.35;72.33;98320.03;5088306;28;20671;-70
2023/01/25 06:41:46;;;;;;;15.47;6.67;;;;;;;2.34;72.24;98322.59;5089542;28;20295;-71
2023/01/25 06:44:13;;;;;;;11.80;5.87;;;;;;;2.24;72.34;98323.38;5088022;28;20698;-68
2023/01/25 06:46:40;;;;;;;12.57;6.63;;;;;;;2.37;71.55;98323.44;5089226;28;20196;-70
2023/01/25 06:49:07;;;;;;;8.90;5.53;;;;;;;2.00;72.69;98320.63;5088723;28;20181;-70
2023/01/25 06:51:34;;;;;;;20.70;8.27;;;;;;;2.15;72.87;98307.94;5088617;28;20633;-71
2023/01/25 06:54:03;;;;;;;12.73;6.83;;;;;;;2.13;72.63;98320.72;5089106;28;20220;-70
2023/01/25 06:56:31;;;;;;;13.97;8.10;;;;;;;2.23;72.78;98319.94;5070131;28;20863;-71
2023/01/25 06:58:59;;;;;;;8.30;5.73;;;;;;;1.91;72.33;98305.22;5089181;28;20668;-70
2023/01/25 07:01:29;;;;;;;11.23;7.10;;;;;;;1.94;73.87;98310.38;5088007;28;20184;-71
2023/01/25 07:03:58;;;;;;;12.27;6.87;;;;;;;2.08;73.42;98313.88;5087889;28;20242;-70
2023/01/25 07:06:30;;;;;;;13.03;7.67;;;;;;;2.14;73.15;98316.47;5088249;28;20226;-71
2023/01/25 07:09:04;;;;;;;14.17;8.73;;;;;;;2.22;72.24;98327.59;5087297;28;20184;-71
2023/01/25 07:11:32;;;;;;;10.07;6.33;;;;;;;2.25;72.15;98314.84;5088858;28;20675;-70
2023/01/25 07:13:59;;;;;;;7.53;4.47;;;;;;;2.33;71.63;98320.84;5069103;28;20341;-71
2023/01/25 07:16:35;;;;;;;5.53;4.43;;;;;;;2.22;71.47;98317.38;5088942;28;20230;-71
2023/01/25 07:19:09;;;;;;;10.07;5.63;;;;;;;2.06;71.74;98290.84;5069188;28;20721;-71
2023/01/25 07:21:36;;;;;;;13.73;6.57;;;;;;;2.30;71.83;98306.38;5088126;28;20689;-70
2023/01/25 07:24:04;;;;;;;17.97;5.33;;;;;;;2.42;70.64;98296.22;5086663;28;20288;-70
2023/01/25 07:26:31;;;;;;;8.07;5.70;;;;;;;2.43;70.68;98294.53;5087009;28;20257;-71
2023/01/25 07:28:59;;;;;;;9.07;6.10;;;;;;;2.29;71.33;98278.22;5088559;28;20189;-70
2023/01/25 07:31:27;;;;;;;10.57;5.90;;;;;;;2.64;69.81;98312.53;5069019;28;20185;-71
2023/01/25 07:33:56;;;;;;;5.97;3.60;;;;;;;2.13;66.75;98307.94;5088384;28;20216;-71
2023/01/25 07:36:25;;;;;;;6.07;3.53;;;;;;;1.94;68.21;98311.19;5086719;28;20618;-69
2023/01/25 07:38:57;;;;;;;6.20;3.70;;;;;;;1.98;69.26;98296.78;5086411;28;20217;-70
2023/01/25 07:41:24;;;;;;;5.93;4.20;;;;;;;2.25;68.20;98312.28;5085882;28;20333;-72
2023/01/25 07:43:52;;;;;;;8.60;3.77;;;;;;;2.40;69.97;98308.16;5085559;28;20203;-71
2023/01/25 07:46:34;;;;;;;15.83;7.23;;;;;;;2.55;70.83;98315.06;5086907;28;20432;-71
2023/01/25 07:49:01;;;;;;;13.97;5.63;;;;;;;2.54;71.41;98289.47;5085104;28;20192;-71
2023/01/25 07:51:29;;;;;;;9.97;4.60;;;;;;;2.63;70.86;98315.97;5069591;28;20573;-72
2023/01/25 07:54:02;;;;;;;6.90;4.57;;;;;;;2.62;71.30;98311.66;5068726;28;20232;-70
2023/01/25 07:56:39;;;;;;;8.43;4.20;;;;;;;2.70;70.55;98312.56;5086172;28;20233;-71
2023/01/25 07:59:08;;;;;;;8.77;5.27;;;;;;;2.81;70.66;98300.69;5069582;28;20192;-71
2023/01/25 08:01:37;;;;;;;9.10;4.83;;;;;;;2.89;70.87;98309.25;5068483;28;20200;-70
2023/01/25 08:04:05;;;;;;;9.27;4.73;;;;;;;2.86;69.52;98314.38;5069505;28;20668;-70
2023/01/25 08:06:40;;;;;;;7.87;5.30;;;;;;;2.72;70.25;98298.09;5086445;28;20184;-71
2023/01/25 08:09:11;;;;;;;9.80;5.50;;;;;;;2.88;69.82;98312.69;5086162;28;20184;-72
2023/01/25 08:11:40;;;;;;;8.83;5.00;;;;;;;2.90;68.97;98300.75;5086055;28;20615;-73
2023/01/25 08:14:08;;;;;;;12.00;4.50;;;;;;;2.79;68.57;98269.16;5068497;28;20910;-72
2023/01/25 08:16:36;;;;;;;6.73;4.80;;;;;;;2.67;68.62;98287.00;5085954;28;20276;-72
2023/01/25 08:19:03;;;;;;;8.07;4.50;;;;;;;2.90;68.18;98300.75;5084758;28;20176;-71
2023/01/25 08:21:33;;;;;;;8.63;4.33;;;;;;;3.15;68.67;98317.06;5087862;28;20217;-71
2023/01/25 08:24:04;;;;;;;7.10;4.40;;;;;;;3.12;68.67;98317.91;5068043;28;20552;-72
2023/01/25 08:26:33;;;;;;;12.00;4.23;;;;;;;3.04;69.05;98306.78;5085509;28;20195;-71
2023/01/25 08:29:01;;;;;;;7.33;4.00;;;;;;;3.29;68.36;98320.53;5085385;28;20185;-70
2023/01/25 08:31:31;;;;;;;8.03;4.03;;;;;;;3.28;68.44;98324.78;5085069;28;20668;-72
2023/01/25 08:33:58;;;;;;;12.50;3.83;;;;;;;3.43;68.73;98316.28;5087013;28;20660;-72
2023/01/25 08:36:27;;;;;;;8.87;4.20;;;;;;;3.54;67.88;98321.44;5084219;28;20200;-72
2023/01/25 08:39:03;;;;;;;11.57;4.63;;;;;;;3.54;66.72;98317.19;5086243;28;20221;-70
2023/01/25 08:41:31;;;;;;;14.17;5.10;;;;;;;3.54;67.65;98317.19;5086048;28;20282;-71
2023/01/25 08:43:59;;;;;;;10.53;5.37;;;;;;;3.73;67.13;98323.19;5086556;28;20224;-71
2023/01/25 08:46:29;;;;;;;13.13;5.30;;;;;;;3.63;67.73;98312.06;5086430;28;20193;-72
2023/01/25 08:48:59;;;;;;;8.93;4.87;;;;;;;3.71;65.58;98315.47;5085682;28;20570;-71
2023/01/25 08:51:27;;;;;;;7.67;4.20;;;;;;;3.73;65.12;98315.50;5086619;28;20182;-70
2023/01/25 08:53:54;;;;;;;7.07;4.93;;;;;;;3.60;65.49;98324.88;5067099;28;20271;-71
2023/01/25 08:56:22;;;;;;;11.13;3.70;;;;;;;3.22;66.40;98316.22;5084923;28;20725;-70
2023/01/25 08:58:50;;;;;;;9.87;4.60;;;;;;;3.50;66.21;98327.41;5050632;28;20291;-70
2023/01/25 09:01:19;;;;;;;4.90;3.80;;;;;;;3.45;65.86;98334.22;5068369;28;20271;-70
2023/01/25 09:03:49;;;;;;;6.60;3.57;;;;;;;3.51;64.81;98313.72;5068090;28;20198;-70
2023/01/25 09:06:19;;;;;;;6.17;4.07;;;;;;;3.32;64.63;98273.59;5067116;28;20234;-71
2023/01/25 09:08:46;;;;;;;7.33;4.10;;;;;;;3.50;64.79;98319.72;5086527;28;20303;-71
2023/01/25 09:11:18;;;;;;;6.40;4.33;;;;;;;3.55;65.27;98292.41;5066699;28;20295;-69
2023/01/25 09:13:47;;;;;;;9.90;4.10;;;;;;;3.81;65.27;98318.94;5086333;28;20209;-71
2023/01/25 09:16:26;;;;;;;4.63;2.90;;;;;;;3.65;64.45;98301.81;5085233;28;20280;-71
2023/01/25 09:18:57;;;;;;;5.47;3.60;;;;;;;3.62;64.34;98310.38;5067588;28;20192;-73
2023/01/25 09:21:24;;;;;;;7.60;3.20;;;;;;;3.70;65.15;98308.66;5086447;28;20186;-70
2023/01/25 09:23:52;;;;;;;12.27;5.30;;;;;;;3.55;64.04;98277.91;5084142;28;20193;-72
2023/01/25 09:26:38;;;;;;;9.60;4.77;;;;;;;3.46;64.21;98246.31;5086386;28;20181;-71
2023/01/25 09:29:06;;;;;;;11.47;4.40;;;;;;;3.76;64.40;98295.00;5084111;28;20279;-71
2023/01/25 09:31:38;;;;;;;10.20;3.83;;;;;;;3.88;64.37;98288.19;5084735;28;20216;-71
2023/01/25 09:34:38;;;;;;;7.53;4.93;;;;;;;3.68;63.82;98292.44;5076889;28;20366;-72
2023/01/25 09:37:05;;;;;;;6.40;4.10;;;;;;;3.62;64.19;98278.78;5084920;28;20200;-71
2023/01/25 09:39:32;;;;;;;11.43;6.40;;;;;;;3.75;64.78;98271.09;5085976;28;20307;-71
2023/01/25 09:42:21;;;;;;;8.40;4.53;;;;;;;3.76;64.26;98266.81;5083877;28;20188;-71
2023/01/25 09:44:51;;;;;;;14.20;5.43;;;;;;;3.89;64.31;98263.44;5086258;28;20597;-72
2023/01/25 09:47:37;;;;;;;7.03;4.10;;;;;;;3.85;63.85;98254.03;5084851;28;20200;-71
2023/01/25 09:50:37;;;;;;;8.70;4.10;;;;;;;3.82;63.90;98247.19;5085731;28;20181;-71
2023/01/25 09:53:23;;;;;;;15.33;3.80;;;;;;;3.88;63.79;98256.56;5076534;28;20196;-71
2023/01/25 09:55:54;;;;;;;7.63;2.97;;;;;;;3.77;63.07;98243.75;5089708;28;20223;-72
2023/01/25 09:58:28;;;;;;;9.40;4.33;;;;;;;3.83;63.51;98242.94;5089096;28;20195;-71
2023/01/25 10:01:23;;;;;;;8.43;4.00;;;;;;;3.92;63.35;98237.78;5088466;28;20289;-72
2023/01/25 10:04:28;;;;;;;6.50;3.47;;;;;;;3.91;62.95;98229.28;5089111;28;20185;-71
2023/01/25 10:07:02;;;;;;;14.33;6.60;;;;;;;3.89;63.17;98222.44;5088647;28;20216;-71
2023/01/25 10:09:43;;;;;;;9.50;5.83;;;;;;;3.61;62.78;98224.13;5089997;28;20223;-71
2023/01/25 10:12:24;;;;;;;6.93;4.07;;;;;;;3.44;63.20;98218.16;5088219;28;20192;-70
2023/01/25 10:14:51;;;;;;;5.93;4.00;;;;;;;3.31;63.00;98221.53;5088767;28;20223;-71
2023/01/25 10:17:34;;;;;;;8.80;4.77;;;;;;;3.39;63.63;98219.00;5088629;28;20717;-70
2023/01/25 10:20:16;;;;;;;4.67;2.40;;;;;;;3.10;62.47;98206.16;5087189;28;20188;-72
2023/01/25 10:22:54;;;;;;;9.27;4.53;;;;;;;3.20;62.29;98189.94;5088257;28;20188;-72
2023/01/25 10:25:24;;;;;;;6.17;3.63;;;;;;;3.20;61.65;98198.50;5086979;28;20201;-72
2023/01/25 10:28:13;;;;;;;3.83;2.67;;;;;;;3.35;62.31;98196.78;5088976;28;20265;-71
2023/01/25 10:30:56;;;;;;;5.90;3.47;;;;;;;3.21;61.57;98187.38;5089304;28;20559;-70
2023/01/25 10:33:27;;;;;;;2.93;2.37;;;;;;;3.23;61.38;98183.16;5087983;28;20184;-70
2023/01/25 10:35:58;;;;;;;2.47;2.10;;;;;;;3.29;62.43;98183.16;5089272;28;20185;-69
2023/01/25 10:38:45;;;;;;;4.53;3.13;;;;;;;3.52;61.23;98179.75;5087960;28;20274;-70
2023/01/25 10:41:18;;;;;;;4.13;3.27;;;;;;;3.66;60.85;98172.91;5088603;28;20608;-70
2023/01/25 10:43:46;;;;;;;5.40;3.47;;;;;;;3.79;61.62;98165.19;5087635;28;20646;-71
2023/01/25 10:46:22;;;;;;;5.00;3.40;;;;;;;3.84;60.13;98167.75;5086498;28;20224;-72
2023/01/25 10:48:49;;;;;;;4.63;3.57;;;;;;;3.69;61.22;98158.38;5070892;28;20220;-71
2023/01/25 10:51:36;;;;;;;7.23;3.83;;;;;;;3.79;61.53;98157.53;5086390;28;20598;-72
2023/01/25 10:54:43;;;;;;;9.07;4.40;;;;;;;3.89;60.71;98141.31;5088393;28;20257;-71
2023/01/25 10:58:08;;;;;;;11.60;3.40;;;;;;;3.98;60.26;98137.84;5070367;28;20546;-71
2023/01/25 11:01:31;;;;;;;4.90;3.33;;;;;;;4.30;59.93;98154.00;5087894;28;20186;-71
2023/01/25 11:05:10;;;;;;;6.70;3.70;;;;;;;4.24;60.51;98151.47;5086823;28;20273;-72
2023/01/25 11:08:34;;;;;;;4.43;3.30;;;;;;;4.20;59.59;98100.19;5087482;28;20196;-71
2023/01/25 11:12:04;;;;;;;8.87;5.03;;;;;;;4.15;60.29;98141.22;5088329;28;20564;-71
2023/01/25 11:15:24;;;;;;;8.27;4.63;;;;;;;4.29;60.29;98131.78;5086766;28;20416;-70
2023/01/25 11:18:45;;;;;;;6.80;4.20;;;;;;;4.48;59.14;98123.16;5086509;28;20289;-71
2023/01/25 11:22:11;;;;;;;10.00;5.47;;;;;;;4.22;59.43;98119.84;5086949;28;20198;-72
2023/01/25 11:25:43;;;;;;;12.33;5.80;;;;;;;4.30;60.64;98118.09;5087164;28;20574;-72
2023/01/25 11:29:04;;;;;;;8.17;4.40;;;;;;;4.50;61.40;98121.44;5087978;28;20189;-72
2023/01/25 11:32:25;;;;;;;7.43;4.37;;;;;;;4.54;59.48;98115.44;5088706;28;20300;-71
2023/01/25 11:35:55;;;;;;;7.67;4.87;;;;;;;4.47;61.53;98112.91;5087391;28;20229;-72
2023/01/25 11:39:24;;;;;;;6.07;4.60;;;;;;;4.40;60.48;98109.50;5086921;28;20217;-71
2023/01/25 11:42:24;;;;;;;7.93;4.60;;;;;;;4.50;60.05;98111.16;5076479;28;20241;-71
2023/01/25 11:45:23;;;;;;;17.00;10.00;;;;;;;4.38;62.10;98105.25;5085928;28;20197;-70
2023/01/25 11:48:07;;;;;;;9.77;4.40;;;;;;;4.39;61.81;98100.09;5084840;28;20201;-70
2023/01/25 11:51:23;;;;;;;11.57;3.83;;;;;;;4.44;61.10;98094.97;5086977;28;20228;-71
2023/01/25 11:54:04;;;;;;;9.73;3.90;;;;;;;4.43;61.13;98101.78;5064169;28;20232;-72
2023/01/25 11:57:03;;;;;;;18.30;5.17;;;;;;;4.57;60.18;98097.47;5086647;28;20191;-70
2023/01/25 11:59:59;;;;;;;6.07;2.97;;;;;;;4.72;59.45;98086.25;5084923;28;20291;-72
2023/01/25 12:03:37;;;;;;;6.43;3.10;;;;;;;4.57;59.03;98086.34;5085986;28;20178;-71
2023/01/25 12:07:02;;;;;;;12.63;3.17;;;;;;;4.62;59.24;98085.44;5087175;28;20407;-70
2023/01/25 12:10:15;;;;;;;10.17;4.43;;;;;;;4.59;59.09;98070.09;5086628;28;20223;-70
2023/01/25 12:12:58;;;;;;;9.40;4.57;;;;;;;4.57;60.22;98074.38;5086231;28;20685;-70
2023/01/25 12:15:57;;;;;;;6.87;3.53;;;;;;;4.43;59.62;98068.44;5087446;28;20310;-72
2023/01/25 12:19:26;;;;;;;8.67;3.30;;;;;;;3.78;61.75;98071.28;5085210;28;20231;-73
2023/01/25 12:22:55;;;;;;;7.53;3.27;;;;;;;3.76;62.61;98067.03;5083925;28;20189;-72